Time;durP1;ratioP1;P1;durP2;ratioP2;P2;SDS_P1;SDS_P2;PMS_P1;PMS_P2;Temp;Humidity;BMP_temperature;BMP_pressure;BME280_temperature;BME280_humidity;BME280_pressure;Samples;Min_cycle;Max_cycle;Signal;HPM_P1;HPM_P2
2022/10/14 00:01:14;;;;;;;7.90;7.10;;;15.40;99.90;;;;;;5079182;28;20167;-69
2022/10/14 00:03:40;;;;;;;7.73;5.87;;;15.40;99.90;;;;;;5076828;28;20427;-70
2022/10/14 00:06:09;;;;;;;7.00;5.27;;;15.30;99.90;;;;;;5051923;28;20512;-69
2022/10/14 00:08:34;;;;;;;8.03;6.13;;;15.30;99.90;;;;;;5058218;28;20444;-69
2022/10/14 00:11:11;;;;;;;7.97;6.93;;;15.20;99.90;;;;;;5075738;28;20405;-69
2022/10/14 00:13:37;;;;;;;14.23;7.20;;;15.30;99.90;;;;;;5074517;28;20550;-69
2022/10/14 00:16:04;;;;;;;10.20;6.90;;;15.30;99.90;;;;;;5075595;28;20544;-69
2022/10/14 00:18:30;;;;;;;9.83;6.53;;;15.30;99.90;;;;;;5074415;28;20516;-69
2022/10/14 00:20:57;;;;;;;6.57;5.97;;;15.20;99.90;;;;;;5075864;28;20407;-69
2022/10/14 00:23:23;;;;;;;10.37;6.70;;;15.20;99.90;;;;;;5074752;28;20439;-69
2022/10/14 00:25:49;;;;;;;9.73;6.30;;;15.00;99.90;;;;;;5075644;28;20397;-69
2022/10/14 00:28:15;;;;;;;6.50;5.90;;;15.10;99.90;;;;;;5075487;28;20903;-69
2022/10/14 00:30:41;;;;;;;9.43;6.63;;;15.10;99.90;;;;;;5057665;28;20664;-69
2022/10/14 00:33:06;;;;;;;6.97;6.37;;;15.20;99.90;;;;;;5087773;22;20453;-70
2022/10/14 00:35:32;;;;;;;8.07;6.80;;;15.20;99.90;;;;;;5055690;28;20184;-71
2022/10/14 00:37:58;;;;;;;8.40;5.90;;;15.10;99.90;;;;;;5055584;28;20167;-71
2022/10/14 00:40:25;;;;;;;8.47;7.13;;;15.10;99.90;;;;;;5055302;28;20166;-71
2022/10/14 00:42:50;;;;;;;9.47;6.30;;;15.30;99.90;;;;;;5037193;28;20251;-71
2022/10/14 00:45:21;;;;;;;10.70;7.23;;;15.20;99.90;;;;;;5055228;28;20512;-72
2022/10/14 00:47:49;;;;;;;12.80;8.07;;;15.30;99.90;;;;;;5055326;28;20686;-72
2022/10/14 00:50:16;;;;;;;11.87;7.20;;;15.40;99.90;;;;;;5054548;28;20409;-71
2022/10/14 00:52:43;;;;;;;8.23;7.43;;;15.40;99.90;;;;;;5054942;28;20452;-72
2022/10/14 00:55:17;;;;;;;9.10;7.40;;;15.30;99.90;;;;;;5055425;28;20446;-71
2022/10/14 00:57:43;;;;;;;9.83;7.40;;;15.30;99.90;;;;;;5055829;28;20441;-72
2022/10/14 01:00:15;;;;;;;8.90;6.47;;;15.10;99.90;;;;;;5055399;28;20490;-72
2022/10/14 01:02:41;;;;;;;7.87;7.07;;;15.10;99.90;;;;;;5055659;28;20395;-72
2022/10/14 01:05:10;;;;;;;9.43;7.83;;;15.10;99.90;;;;;;5054196;28;20948;-71
2022/10/14 01:07:47;;;;;;;7.27;6.60;;;15.20;99.90;;;;;;5054775;28;20409;-72
2022/10/14 01:10:31;;;;;;;7.67;6.83;;;15.30;99.90;;;;;;5036855;28;20439;-71
2022/10/14 01:13:34;;;;;;;13.50;7.97;;;15.40;99.90;;;;;;5054875;28;20594;-72
2022/10/14 01:16:06;;;;;;;9.40;7.20;;;15.30;99.90;;;;;;5054871;28;20424;-72
2022/10/14 01:18:40;;;;;;;11.23;6.47;;;15.40;99.90;;;;;;5054869;28;20433;-71
2022/10/14 01:21:20;;;;;;;11.00;8.37;;;15.40;99.90;;;;;;5053315;28;20410;-71
2022/10/14 01:24:10;;;;;;;8.43;7.03;;;15.50;99.90;;;;;;5054275;28;20421;-72
2022/10/14 01:27:10;;;;;;;6.20;5.60;;;15.50;99.90;;;;;;5054475;28;20393;-72
2022/10/14 01:30:19;;;;;;;7.60;6.30;;;15.50;99.90;;;;;;5040040;28;20902;-72
2022/10/14 01:33:04;;;;;;;6.73;6.20;;;15.50;99.90;;;;;;5007011;28;20429;-72
2022/10/14 01:35:49;;;;;;;8.70;6.03;;;15.50;99.90;;;;;;5053328;28;20456;-70
2022/10/14 01:38:25;;;;;;;8.43;6.90;;;15.50;99.90;;;;;;5055134;28;20496;-71
2022/10/14 01:40:57;;;;;;;6.70;6.00;;;15.60;99.90;;;;;;5054859;28;20383;-71
2022/10/14 01:43:26;;;;;;;8.63;6.20;;;15.60;99.90;;;;;;5055045;28;20752;-71
2022/10/14 01:45:54;;;;;;;7.20;6.50;;;15.60;99.90;;;;;;5055279;28;20416;-71
2022/10/14 01:48:23;;;;;;;12.63;8.90;;;15.60;99.90;;;;;;5060035;28;20414;-71
2022/10/14 01:50:52;;;;;;;11.43;7.67;;;15.50;99.90;;;;;;5061193;28;20409;-71
2022/10/14 01:53:25;;;;;;;9.93;7.80;;;15.50;99.90;;;;;;5056333;28;20438;-71
2022/10/14 01:55:54;;;;;;;9.00;7.90;;;15.60;99.90;;;;;;5055053;28;20459;-71
2022/10/14 01:58:23;;;;;;;9.03;7.40;;;15.60;99.90;;;;;;5055402;28;20923;-72
2022/10/14 02:00:49;;;;;;;8.60;7.57;;;15.50;99.90;;;;;;5036228;28;20509;-72
2022/10/14 02:03:15;;;;;;;7.77;6.90;;;15.50;99.90;;;;;;5053845;28;20470;-71
2022/10/14 02:05:47;;;;;;;8.30;7.50;;;15.60;99.90;;;;;;5053343;28;20420;-72
2022/10/14 02:08:32;;;;;;;10.23;9.10;;;15.70;99.90;;;;;;5054159;28;20191;-72
2022/10/14 02:11:15;;;;;;;7.03;6.33;;;15.70;99.90;;;;;;5054084;28;20387;-71
2022/10/14 02:14:07;;;;;;;12.77;8.40;;;15.60;99.90;;;;;;5053781;28;20932;-71
2022/10/14 02:16:39;;;;;;;14.53;10.87;;;15.60;99.90;;;;;;5054154;28;20965;-71
2022/10/14 02:19:37;;;;;;;13.97;9.93;;;15.70;99.90;;;;;;5053820;28;20419;-71
2022/10/14 02:22:26;;;;;;;10.90;8.73;;;15.60;99.90;;;;;;5053586;28;20394;-71
2022/10/14 02:24:56;;;;;;;9.87;7.83;;;15.60;99.90;;;;;;5053210;28;20434;-71
2022/10/14 02:27:24;;;;;;;10.80;8.93;;;15.60;99.90;;;;;;5053680;28;20830;-71
2022/10/14 02:29:52;;;;;;;10.13;8.57;;;15.60;99.90;;;;;;5053526;28;20914;-71
2022/10/14 02:32:20;;;;;;;9.37;8.50;;;15.60;99.90;;;;;;5053258;28;20773;-71
2022/10/14 02:34:52;;;;;;;8.33;7.53;;;15.60;99.90;;;;;;5051462;28;20821;-71
2022/10/14 02:37:20;;;;;;;8.57;7.53;;;15.70;99.90;;;;;;5052897;28;20435;-71
2022/10/14 02:39:54;;;;;;;16.73;9.70;;;15.70;99.90;;;;;;5052977;28;20402;-71
2022/10/14 02:42:20;;;;;;;7.93;7.00;;;15.70;99.90;;;;;;5035315;28;20407;-71
2022/10/14 02:44:57;;;;;;;8.97;8.10;;;15.70;99.90;;;;;;5052912;28;20847;-71
2022/10/14 02:47:24;;;;;;;10.40;9.40;;;15.60;99.90;;;;;;5053266;28;20169;-71
2022/10/14 02:49:50;;;;;;;12.50;9.40;;;15.50;99.90;;;;;;5052448;28;20466;-71
2022/10/14 02:52:16;;;;;;;9.73;8.80;;;15.40;99.90;;;;;;5053000;28;20457;-71
2022/10/14 02:54:42;;;;;;;11.30;10.10;;;15.40;99.90;;;;;;5052659;28;20931;-71
2022/10/14 02:57:07;;;;;;;8.73;6.40;;;15.50;99.90;;;;;;5049452;28;20277;-71
2022/10/14 02:59:33;;;;;;;10.50;9.43;;;15.50;99.90;;;;;;5043834;28;20173;-71
2022/10/14 03:01:59;;;;;;;12.23;9.10;;;15.50;99.90;;;;;;5034795;28;20757;-71
2022/10/14 03:04:24;;;;;;;9.30;8.40;;;15.40;99.90;;;;;;5052387;28;20747;-71
2022/10/14 03:06:50;;;;;;;9.40;6.93;;;15.50;99.90;;;;;;5052446;28;20185;-71
2022/10/14 03:09:15;;;;;;;9.23;7.77;;;15.40;99.90;;;;;;5052919;28;20674;-71
2022/10/14 03:11:41;;;;;;;9.87;7.50;;;15.40;99.90;;;;;;5052482;28;20220;-71
2022/10/14 03:14:06;;;;;;;9.57;8.60;;;15.30;99.90;;;;;;5053011;28;20224;-71
2022/10/14 03:16:32;;;;;;;10.47;9.30;;;15.30;99.90;;;;;;5052591;28;20193;-71
2022/10/14 03:18:57;;;;;;;11.00;10.00;;;15.30;99.90;;;;;;5052899;28;20170;-71
2022/10/14 03:21:23;;;;;;;9.33;8.40;;;15.20;99.90;;;;;;5052151;28;20170;-71
2022/10/14 03:23:49;;;;;;;9.77;8.77;;;15.10;99.90;;;;;;5052646;28;20236;-70
2022/10/14 03:26:15;;;;;;;14.87;10.70;;;15.00;99.90;;;;;;5052843;28;20196;-71
2022/10/14 03:28:41;;;;;;;10.83;8.07;;;14.80;99.90;;;;;;5051251;28;20519;-71
2022/10/14 03:31:07;;;;;;;11.23;8.73;;;14.90;99.90;;;;;;5052903;28;20232;-71
2022/10/14 03:33:32;;;;;;;11.47;10.37;;;14.90;99.90;;;;;;5052500;28;20216;-71
2022/10/14 03:35:58;;;;;;;13.30;11.90;;;15.10;99.90;;;;;;5050635;28;20448;-71
2022/10/14 03:38:23;;;;;;;14.20;12.23;;;15.00;99.90;;;;;;5052736;28;20173;-72
2022/10/14 03:40:49;;;;;;;13.97;12.00;;;14.80;99.90;;;;;;5052590;28;20251;-71
2022/10/14 03:43:14;;;;;;;13.67;12.27;;;14.70;99.90;;;;;;5052586;28;20170;-71
2022/10/14 03:45:40;;;;;;;12.23;10.93;;;14.60;99.90;;;;;;5054417;28;20200;-71
2022/10/14 03:48:05;;;;;;;13.87;10.63;;;14.50;99.90;;;;;;5056200;28;20173;-71
2022/10/14 03:50:31;;;;;;;14.37;12.40;;;14.60;99.90;;;;;;5038031;28;20257;-71
2022/10/14 03:52:57;;;;;;;13.27;11.87;;;14.70;99.90;;;;;;5056065;28;20636;-72
2022/10/14 03:55:23;;;;;;;15.03;13.43;;;14.70;99.90;;;;;;5056140;28;20201;-71
2022/10/14 03:57:48;;;;;;;16.57;14.53;;;14.60;99.90;;;;;;5055695;28;20184;-72
2022/10/14 04:00:14;;;;;;;13.53;12.20;;;14.40;99.90;;;;;;5037876;28;20759;-71
2022/10/14 04:02:40;;;;;;;14.97;13.47;;;14.50;99.90;;;;;;5056417;28;20174;-71
2022/10/14 04:05:06;;;;;;;18.10;13.67;;;14.70;99.90;;;;;;5037485;28;20432;-71
2022/10/14 04:07:32;;;;;;;15.00;13.47;;;14.80;99.90;;;;;;5055905;28;20461;-72
2022/10/14 04:09:57;;;;;;;13.90;11.50;;;14.90;99.90;;;;;;5055739;28;20517;-71
2022/10/14 04:12:23;;;;;;;12.70;11.40;;;14.90;99.90;;;;;;5055973;28;20271;-71
2022/10/14 04:14:49;;;;;;;15.20;13.27;;;14.90;99.90;;;;;;5054289;28;20206;-71
2022/10/14 04:17:14;;;;;;;13.13;11.73;;;15.00;99.90;;;;;;5055651;28;20189;-71
2022/10/14 04:19:40;;;;;;;15.93;12.60;;;15.00;99.90;;;;;;5055569;28;20159;-70
2022/10/14 04:22:05;;;;;;;16.73;14.93;;;15.10;99.90;;;;;;5055767;28;20178;-71
2022/10/14 04:24:31;;;;;;;14.27;11.90;;;15.20;99.90;;;;;;5055442;28;20245;-71
2022/10/14 04:26:57;;;;;;;13.43;12.10;;;15.10;99.90;;;;;;5055731;28;20182;-71
2022/10/14 04:29:22;;;;;;;12.63;11.10;;;15.10;99.90;;;;;;5055350;28;20203;-71
2022/10/14 04:31:48;;;;;;;12.90;11.50;;;15.20;99.90;;;;;;5055861;28;20171;-71
2022/10/14 04:34:13;;;;;;;13.70;10.80;;;15.20;99.90;;;;;;5037355;28;20212;-71
2022/10/14 04:36:39;;;;;;;12.23;11.00;;;15.30;99.90;;;;;;5053920;28;20197;-71
2022/10/14 04:39:05;;;;;;;12.50;11.30;;;15.30;99.90;;;;;;5055504;28;20168;-71
2022/10/14 04:41:31;;;;;;;14.40;12.80;;;15.30;99.90;;;;;;5049798;28;20412;-71
2022/10/14 04:43:56;;;;;;;12.37;10.97;;;15.30;99.90;;;;;;5055030;28;20205;-70
2022/10/14 04:46:22;;;;;;;11.90;10.73;;;15.30;99.90;;;;;;5055113;28;20174;-71
2022/10/14 04:48:48;;;;;;;10.30;9.33;;;15.20;99.90;;;;;;5055765;28;20171;-71
2022/10/14 04:51:14;;;;;;;15.10;13.23;;;15.20;99.90;;;;;;5054703;28;20636;-71
2022/10/14 04:53:39;;;;;;;12.27;11.07;;;15.30;99.90;;;;;;5042224;28;20457;-70
2022/10/14 04:56:05;;;;;;;12.73;10.70;;;15.30;99.90;;;;;;5045463;28;20305;-72
2022/10/14 04:58:31;;;;;;;10.63;9.53;;;15.30;99.90;;;;;;5046069;28;20188;-72
2022/10/14 05:00:57;;;;;;;11.23;10.17;;;15.30;99.90;;;;;;5044767;28;20185;-71
2022/10/14 05:03:22;;;;;;;10.83;9.73;;;15.30;99.90;;;;;;5052006;28;20570;-71
2022/10/14 05:05:50;;;;;;;11.80;10.37;;;15.30;99.90;;;;;;5054828;28;20661;-71
2022/10/14 05:08:16;;;;;;;15.90;12.33;;;15.30;99.90;;;;;;5055062;28;20211;-71
2022/10/14 05:10:42;;;;;;;14.83;12.50;;;15.30;99.90;;;;;;5055037;28;20394;-71
2022/10/14 05:13:07;;;;;;;13.13;10.53;;;15.10;99.90;;;;;;5054879;28;20803;-71
2022/10/14 05:15:33;;;;;;;13.23;11.93;;;15.10;99.90;;;;;;5040014;28;20168;-70
2022/10/14 05:17:58;;;;;;;14.93;13.40;;;15.10;99.90;;;;;;5034347;28;20255;-72
2022/10/14 05:20:24;;;;;;;16.67;11.20;;;14.90;99.90;;;;;;5034722;28;20194;-71
2022/10/14 05:22:49;;;;;;;14.10;12.70;;;14.70;99.90;;;;;;5049216;28;20170;-72
2022/10/14 05:25:15;;;;;;;16.13;13.60;;;14.70;99.90;;;;;;5054688;28;20292;-72
2022/10/14 05:27:41;;;;;;;12.27;11.00;;;14.70;99.90;;;;;;5036692;28;20634;-72
2022/10/14 05:30:07;;;;;;;13.57;12.17;;;14.50;99.90;;;;;;5054396;28;20213;-71
2022/10/14 05:32:33;;;;;;;15.87;12.67;;;14.50;99.90;;;;;;5040238;28;20173;-72
2022/10/14 05:34:58;;;;;;;14.33;12.80;;;14.50;99.90;;;;;;5038158;28;20922;-72
2022/10/14 05:37:24;;;;;;;13.97;12.53;;;14.50;99.90;;;;;;5036845;28;20194;-71
2022/10/14 05:39:49;;;;;;;14.93;13.43;;;14.40;99.90;;;;;;5041026;28;20588;-72
2022/10/14 05:42:15;;;;;;;14.43;11.17;;;14.50;99.90;;;;;;5054737;28;20184;-72
2022/10/14 05:44:40;;;;;;;13.27;11.90;;;14.70;99.90;;;;;;5055054;28;20554;-72
2022/10/14 05:47:06;;;;;;;17.60;12.23;;;14.70;99.90;;;;;;5036608;28;20205;-72
2022/10/14 05:49:32;;;;;;;12.30;11.00;;;14.70;99.90;;;;;;5051232;28;20186;-71
2022/10/14 05:51:57;;;;;;;14.70;12.67;;;14.60;99.90;;;;;;5045316;28;20188;-72
2022/10/14 05:54:23;;;;;;;13.33;11.43;;;14.60;99.90;;;;;;5036129;28;20191;-72
2022/10/14 05:56:48;;;;;;;15.50;13.53;;;14.50;99.90;;;;;;5053179;28;20212;-72
2022/10/14 05:59:14;;;;;;;14.37;11.53;;;14.40;99.90;;;;;;5054035;28;20176;-71
2022/10/14 06:01:40;;;;;;;14.57;12.60;;;14.50;99.90;;;;;;5053923;28;20185;-72
2022/10/14 06:04:05;;;;;;;16.00;13.40;;;14.40;99.90;;;;;;5053465;28;20251;-72
2022/10/14 06:06:31;;;;;;;15.33;12.90;;;14.60;99.90;;;;;;5053689;28;20176;-72
2022/10/14 06:08:57;;;;;;;15.50;13.90;;;14.50;99.90;;;;;;5052775;28;20211;-72
2022/10/14 06:11:23;;;;;;;12.30;11.07;;;14.50;99.90;;;;;;5053200;28;20216;-72
2022/10/14 06:13:49;;;;;;;17.90;13.10;;;14.40;99.90;;;;;;5053921;28;20197;-72
2022/10/14 06:16:14;;;;;;;15.13;13.10;;;14.60;99.90;;;;;;5035619;28;20870;-72
2022/10/14 06:18:40;;;;;;;14.17;12.77;;;14.60;99.90;;;;;;5053307;28;20431;-72
2022/10/14 06:21:06;;;;;;;13.87;12.47;;;14.70;99.90;;;;;;5052587;28;20179;-71
2022/10/14 06:23:32;;;;;;;18.20;15.47;;;14.70;99.90;;;;;;5053714;28;20197;-71
2022/10/14 06:25:58;;;;;;;19.13;13.63;;;14.80;99.90;;;;;;5053229;28;20407;-71
2022/10/14 06:28:24;;;;;;;12.87;11.57;;;14.80;99.90;;;;;;5053297;28;20185;-72
2022/10/14 06:30:53;;;;;;;15.67;14.07;;;14.80;99.90;;;;;;5053333;28;20170;-72
2022/10/14 06:35:47;;;;;;;14.53;12.30;;;14.70;99.90;;;;;;5050155;28;20467;-70
2022/10/14 06:38:13;;;;;;;16.07;13.90;;;14.90;99.90;;;;;;5053388;28;20404;-70
2022/10/14 06:40:38;;;;;;;14.63;12.30;;;15.10;99.90;;;;;;5052764;28;20183;-70
2022/10/14 06:43:04;;;;;;;13.57;11.20;;;15.20;99.90;;;;;;5051069;28;20233;-70
2022/10/14 06:45:30;;;;;;;12.27;11.07;;;15.40;99.90;;;;;;5052902;28;20187;-69
2022/10/14 06:47:56;;;;;;;17.93;12.83;;;15.50;99.90;;;;;;5051013;28;20180;-69
2022/10/14 06:50:22;;;;;;;13.07;11.83;;;15.60;99.90;;;;;;5052811;28;20904;-70
2022/10/14 06:52:47;;;;;;;15.10;12.00;;;15.70;99.90;;;;;;5053070;28;20170;-70
2022/10/14 06:55:14;;;;;;;13.10;11.70;;;15.80;99.90;;;;;;5052468;28;20706;-69
2022/10/14 06:57:40;;;;;;;13.67;10.97;;;15.90;99.90;;;;;;5052834;28;20273;-70
2022/10/14 07:00:06;;;;;;;16.47;11.80;;;15.90;99.90;;;;;;5051402;28;20493;-70
2022/10/14 07:02:32;;;;;;;12.23;10.87;;;15.90;99.90;;;;;;5053301;28;20400;-70
2022/10/14 07:04:57;;;;;;;11.27;10.07;;;15.60;99.90;;;;;;5052711;28;20468;-69
2022/10/14 07:07:23;;;;;;;12.43;11.17;;;15.60;99.90;;;;;;5034872;28;20179;-70
2022/10/14 07:09:48;;;;;;;11.60;10.40;;;15.50;99.90;;;;;;5052565;28;20169;-70
2022/10/14 07:12:14;;;;;;;11.07;9.97;;;15.70;99.90;;;;;;5052768;28;20185;-69
2022/10/14 07:14:39;;;;;;;11.50;10.30;;;15.70;99.90;;;;;;5052220;28;20199;-69
2022/10/14 07:17:07;;;;;;;12.53;10.27;;;15.70;99.90;;;;;;5052326;28;20195;-69
2022/10/14 07:19:33;;;;;;;11.70;10.40;;;15.70;99.90;;;;;;5037342;28;20529;-70
2022/10/14 07:21:58;;;;;;;13.37;11.73;;;15.60;99.90;;;;;;5036813;28;20449;-69
2022/10/14 07:24:24;;;;;;;12.30;11.00;;;15.70;99.90;;;;;;5034554;28;20433;-70
2022/10/14 07:26:50;;;;;;;14.40;11.13;;;15.60;99.90;;;;;;5036288;28;20310;-69
2022/10/14 07:29:15;;;;;;;10.50;9.50;;;15.50;99.90;;;;;;5036394;28;20164;-70
2022/10/14 07:31:41;;;;;;;12.60;9.30;;;15.60;99.90;;;;;;5056294;28;20179;-70
2022/10/14 07:34:06;;;;;;;9.80;8.77;;;15.90;99.90;;;;;;5056088;28;20209;-70
2022/10/14 07:36:32;;;;;;;10.13;9.10;;;16.30;99.90;;;;;;5056668;28;20195;-70
2022/10/14 07:38:58;;;;;;;9.40;8.43;;;16.40;99.90;;;;;;5056709;28;20626;-70
2022/10/14 07:41:24;;;;;;;9.87;8.47;;;16.50;99.90;;;;;;5055141;28;20253;-70
2022/10/14 07:44:01;;;;;;;17.33;10.60;;;16.60;99.90;;;;;;5055689;28;20264;-70
2022/10/14 07:46:28;;;;;;;9.70;8.70;;;16.80;99.90;;;;;;5056420;28;20388;-69
2022/10/14 07:49:15;;;;;;;11.60;7.30;;;16.90;99.90;;;;;;5054774;28;20546;-70
2022/10/14 07:51:41;;;;;;;9.30;8.50;;;17.10;99.90;;;;;;5055944;28;20397;-70
2022/10/14 07:54:11;;;;;;;10.20;8.97;;;17.10;99.90;;;;;;5056175;28;20528;-69
2022/10/14 07:56:39;;;;;;;9.60;7.97;;;17.20;99.90;;;;;;5055764;28;20504;-70
2022/10/14 07:59:05;;;;;;;8.93;7.43;;;16.90;99.90;;;;;;5055825;28;20440;-70
2022/10/14 08:01:31;;;;;;;9.97;7.60;;;16.70;99.90;;;;;;5056026;28;20508;-70
2022/10/14 08:03:57;;;;;;;10.00;8.27;;;16.60;99.90;;;;;;5055608;28;20511;-70
2022/10/14 08:06:23;;;;;;;7.53;6.60;;;16.50;99.90;;;;;;5055599;28;20483;-70
2022/10/14 08:08:49;;;;;;;7.30;6.57;;;16.60;99.90;;;;;;5054227;28;20957;-70
2022/10/14 08:11:19;;;;;;;12.00;7.80;;;16.80;99.90;;;;;;5055691;28;20495;-69
2022/10/14 08:13:45;;;;;;;8.30;7.20;;;16.80;99.90;;;;;;5055703;28;20190;-70
2022/10/14 08:16:14;;;;;;;13.33;7.90;;;16.90;99.90;;;;;;5054760;28;20532;-70
2022/10/14 08:18:40;;;;;;;8.60;7.70;;;16.80;99.90;;;;;;5055579;28;20821;-70
2022/10/14 08:21:05;;;;;;;10.23;7.60;;;17.00;99.90;;;;;;5054034;28;20419;-71
2022/10/14 08:23:31;;;;;;;9.50;7.10;;;17.00;99.90;;;;;;5055043;28;20666;-70
2022/10/14 08:25:57;;;;;;;7.73;6.93;;;17.10;99.90;;;;;;5054810;28;20159;-70
2022/10/14 08:28:23;;;;;;;10.47;8.87;;;17.30;99.90;;;;;;5055259;28;20416;-70
2022/10/14 08:30:49;;;;;;;9.37;7.60;;;17.30;99.90;;;;;;5055129;28;20491;-70
2022/10/14 08:33:14;;;;;;;10.53;8.10;;;17.10;99.90;;;;;;5055106;28;20167;-70
2022/10/14 08:35:40;;;;;;;8.97;8.07;;;17.20;99.90;;;;;;5054996;28;20206;-70
2022/10/14 08:38:06;;;;;;;11.20;7.53;;;17.30;99.90;;;;;;5053761;28;20716;-70
2022/10/14 08:41:02;;;;;;;9.00;7.27;;;17.20;99.90;;;;;;5055403;28;20171;-70
2022/10/14 08:43:39;;;;;;;7.90;7.13;;;17.40;99.90;;;;;;5032666;28;20650;-70
2022/10/14 08:46:25;;;;;;;8.20;7.00;;;17.70;99.90;;;;;;5033171;28;20907;-70
2022/10/14 08:48:58;;;;;;;10.33;7.00;;;17.30;99.90;;;;;;5035174;28;20401;-70
2022/10/14 08:51:26;;;;;;;8.23;6.63;;;17.40;99.90;;;;;;5034347;28;20405;-70
2022/10/14 08:53:57;;;;;;;7.80;6.63;;;17.70;99.90;;;;;;5037730;28;20843;-69
2022/10/14 08:56:23;;;;;;;6.97;6.30;;;17.90;99.90;;;;;;5034986;28;20484;-70
2022/10/14 08:58:52;;;;;;;7.07;5.10;;;17.70;99.90;;;;;;5034493;28;20439;-70
2022/10/14 09:01:22;;;;;;;6.30;5.57;;;17.80;99.90;;;;;;5034829;28;20409;-69
2022/10/14 09:03:48;;;;;;;7.27;4.70;;;17.60;99.90;;;;;;5017257;28;20446;-70
2022/10/14 09:06:30;;;;;;;5.97;4.83;;;17.30;99.90;;;;;;5050061;28;20488;-70
2022/10/14 09:09:08;;;;;;;9.50;5.40;;;17.60;99.90;;;;;;5045905;28;20470;-70
2022/10/14 09:11:41;;;;;;;7.20;5.03;;;17.60;99.90;;;;;;5054341;28;20397;-70
2022/10/14 09:14:12;;;;;;;8.70;5.70;;;17.70;99.90;;;;;;5054298;28;20425;-70
2022/10/14 09:16:39;;;;;;;6.93;5.13;;;17.50;99.90;;;;;;5054384;28;20441;-71
2022/10/14 09:19:29;;;;;;;6.10;5.50;;;17.60;99.90;;;;;;5053304;28;20797;-70
2022/10/14 09:21:56;;;;;;;5.87;4.70;;;17.40;99.90;;;;;;5054275;28;20424;-70
2022/10/14 09:24:26;;;;;;;6.10;4.77;;;17.70;99.90;;;;;;5051821;28;20425;-70
2022/10/14 09:27:05;;;;;;;5.87;4.70;;;17.70;99.90;;;;;;5032163;28;20441;-69
2022/10/14 09:29:57;;;;;;;5.50;4.40;;;17.70;99.90;;;;;;5034453;28;20398;-69
2022/10/14 09:32:38;;;;;;;9.17;4.20;;;17.70;99.90;;;;;;5014156;28;20476;-69
2022/10/14 09:35:23;;;;;;;6.10;4.70;;;17.60;99.90;;;;;;5032854;28;20547;-69
2022/10/14 09:37:49;;;;;;;5.37;4.57;;;17.60;99.90;;;;;;5034374;28;20477;-69
2022/10/14 09:40:27;;;;;;;10.73;4.30;;;18.00;99.90;;;;;;5034123;28;20503;-69
2022/10/14 09:43:08;;;;;;;6.57;4.13;;;18.00;99.90;;;;;;5040924;28;20428;-69
2022/10/14 09:45:53;;;;;;;6.40;4.30;;;18.10;99.90;;;;;;5053917;28;20421;-69
2022/10/14 09:48:38;;;;;;;4.60;4.17;;;18.30;99.90;;;;;;5052601;28;20450;-69
2022/10/14 09:51:25;;;;;;;8.00;4.20;;;18.70;99.90;;;;;;5053701;28;20373;-69
2022/10/14 09:53:57;;;;;;;6.23;4.93;;;18.90;99.90;;;;;;5053939;28;20489;-69
2022/10/14 09:56:38;;;;;;;5.73;4.47;;;18.90;99.90;;;;;;5052040;28;20817;-69
2022/10/14 09:59:14;;;;;;;10.13;4.80;;;19.00;99.90;;;;;;5053863;28;20431;-69
2022/10/14 10:01:52;;;;;;;6.03;4.60;;;19.20;99.90;;;;;;5052484;28;20425;-69
2022/10/14 10:04:24;;;;;;;4.70;4.30;;;19.40;99.90;;;;;;5035770;28;20812;-69
2022/10/14 10:06:54;;;;;;;8.23;4.13;;;19.30;99.90;;;;;;5052929;28;20402;-69
2022/10/14 10:09:20;;;;;;;5.83;4.23;;;19.40;99.90;;;;;;5053976;28;20413;-69
2022/10/14 10:11:46;;;;;;;9.73;4.70;;;19.80;99.90;;;;;;5053601;28;20416;-69
2022/10/14 10:14:21;;;;;;;14.13;5.30;;;19.80;99.90;;;;;;5053533;28;20429;-69
2022/10/14 10:16:48;;;;;;;5.00;4.47;;;19.60;99.90;;;;;;5053680;28;20242;-70
2022/10/14 10:19:30;;;;;;;6.17;5.03;;;19.60;99.90;;;;;;5053406;28;20467;-69
2022/10/14 10:22:30;;;;;;;4.50;4.10;;;19.80;99.90;;;;;;5053212;28;20458;-69
2022/10/14 10:25:05;;;;;;;6.37;4.20;;;20.00;99.90;;;;;;5053695;28;20505;-70
2022/10/14 10:27:35;;;;;;;5.13;4.50;;;20.10;99.90;;;;;;5053414;28;20787;-69
2022/10/14 10:30:32;;;;;;;6.40;5.10;;;20.20;99.90;;;;;;5053631;28;20385;-69
2022/10/14 10:33:06;;;;;;;5.70;4.20;;;19.90;99.90;;;;;;5053585;28;20420;-70
2022/10/14 10:36:03;;;;;;;5.23;4.20;;;19.90;99.90;;;;;;5053270;28;20493;-69
2022/10/14 10:38:38;;;;;;;5.30;4.80;;;20.00;99.90;;;;;;5053088;28;20408;-70
2022/10/14 10:41:35;;;;;;;5.13;4.50;;;20.10;99.90;;;;;;5035455;28;20401;-70
2022/10/14 10:44:21;;;;;;;5.33;4.17;;;20.00;99.90;;;;;;5051582;28;20572;-70
2022/10/14 10:46:53;;;;;;;8.00;4.90;;;20.20;99.90;;;;;;5053121;28;20462;-70
2022/10/14 10:49:32;;;;;;;4.83;4.33;;;20.20;99.90;;;;;;5052584;28;20397;-70
2022/10/14 10:52:32;;;;;;;13.17;5.17;;;20.20;99.90;;;;;;5052167;28;20491;-70
2022/10/14 10:55:10;;;;;;;5.27;4.77;;;20.30;99.90;;;;;;5052128;28;20923;-70
2022/10/14 10:57:41;;;;;;;4.30;3.70;;;20.20;99.90;;;;;;5051405;28;20479;-70
2022/10/14 11:00:15;;;;;;;4.73;3.97;;;19.70;99.90;;;;;;5052917;28;20402;-69
2022/10/14 11:02:59;;;;;;;7.00;4.17;;;19.80;99.90;;;;;;5053108;28;20393;-69
2022/10/14 11:05:33;;;;;;;5.53;4.43;;;19.80;99.90;;;;;;5034934;28;20447;-69
2022/10/14 11:14:32;;;;;;;5.43;3.80;;;19.90;99.90;;;;;;5052726;28;20416;-70
2022/10/14 11:17:13;;;;;;;5.27;3.80;;;19.50;99.90;;;;;;5052836;28;20445;-70
2022/10/14 11:19:49;;;;;;;4.33;3.50;;;19.40;99.90;;;;;;5034754;28;20500;-70
2022/10/14 11:22:37;;;;;;;5.60;4.07;;;19.20;99.90;;;;;;5033283;28;20417;-70
2022/10/14 11:25:39;;;;;;;8.30;3.47;;;19.10;99.90;;;;;;5051172;28;20469;-70
2022/10/14 11:28:17;;;;;;;8.63;4.50;;;19.20;99.90;;;;;;5052894;28;20392;-70
2022/10/14 11:30:52;;;;;;;5.77;4.07;;;18.90;99.90;;;;;;5044981;28;20489;-70
2022/10/14 11:33:33;;;;;;;5.03;4.30;;;19.00;99.90;;;;;;5032966;28;20394;-70
2022/10/14 11:36:26;;;;;;;4.17;3.77;;;19.20;99.90;;;;;;5029957;28;20495;-70
2022/10/14 11:39:29;;;;;;;13.67;4.70;;;19.40;99.90;;;;;;5034609;28;20421;-70
2022/10/14 11:42:01;;;;;;;5.37;4.63;;;19.30;99.90;;;;;;4998539;28;20421;-70
2022/10/14 11:44:39;;;;;;;5.67;3.97;;;19.30;99.90;;;;;;5051616;28;20449;-69
2022/10/14 11:47:17;;;;;;;6.33;4.13;;;19.50;99.90;;;;;;5051964;28;20435;-71
2022/10/14 11:50:14;;;;;;;4.77;3.73;;;19.40;99.90;;;;;;5012918;28;20383;-70
2022/10/14 11:53:12;;;;;;;4.40;3.77;;;19.50;99.90;;;;;;5006965;28;20421;-70
2022/10/14 11:55:43;;;;;;;4.13;3.27;;;19.90;99.90;;;;;;5037280;28;20823;-70
2022/10/14 11:58:14;;;;;;;5.40;3.97;;;20.40;99.90;;;;;;5051039;28;20478;-70
2022/10/14 12:00:43;;;;;;;4.10;3.70;;;20.50;99.90;;;;;;5052234;28;20398;-70
2022/10/14 12:03:33;;;;;;;3.83;3.40;;;20.30;99.90;;;;;;5052188;28;20895;-70
2022/10/14 12:06:19;;;;;;;4.80;4.10;;;20.50;99.90;;;;;;5020995;28;20498;-71
2022/10/14 12:08:59;;;;;;;5.80;3.80;;;20.20;99.90;;;;;;5035939;28;20762;-70
2022/10/14 12:12:02;;;;;;;5.83;3.33;;;20.10;99.90;;;;;;5036179;28;20390;-70
2022/10/14 12:14:49;;;;;;;6.20;3.80;;;19.90;99.90;;;;;;5035681;28;20496;-70
2022/10/14 12:17:33;;;;;;;7.10;4.03;;;19.90;99.90;;;;;;5054711;28;20447;-70
2022/10/14 12:20:12;;;;;;;4.70;4.07;;;20.00;99.90;;;;;;5055587;28;20398;-70
2022/10/14 12:22:38;;;;;;;6.20;3.27;;;19.70;99.90;;;;;;5055568;28;20424;-70
2022/10/14 12:25:11;;;;;;;6.83;3.27;;;19.50;99.90;;;;;;5055544;28;20835;-70
2022/10/14 12:27:37;;;;;;;4.80;3.20;;;19.90;99.90;;;;;;5056096;28;20418;-70
2022/10/14 12:30:03;;;;;;;3.23;2.37;;;20.30;99.90;;;;;;5055040;28;20464;-70
2022/10/14 12:32:30;;;;;;;3.27;2.90;;;20.40;99.90;;;;;;5055318;28;20312;-70
2022/10/14 12:35:00;;;;;;;3.60;2.53;;;20.40;99.90;;;;;;5084021;22;20495;-71
2022/10/14 12:37:33;;;;;;;3.10;2.60;;;20.70;99.90;;;;;;5092050;28;20459;-72
2022/10/14 12:40:05;;;;;;;4.10;2.70;;;20.70;99.90;;;;;;5095868;28;20404;-72
2022/10/14 12:42:43;;;;;;;3.67;2.57;;;21.30;99.90;;;;;;5079749;28;20452;-71
2022/10/14 12:45:22;;;;;;;2.63;2.43;;;21.10;99.90;;;;;;5075055;28;20491;-72
2022/10/14 12:48:14;;;;;;;3.67;2.63;;;21.40;99.90;;;;;;5074791;28;20419;-72
2022/10/14 12:50:41;;;;;;;3.00;2.60;;;21.60;99.90;;;;;;5064265;28;20467;-71
2022/10/14 12:53:29;;;;;;;4.47;4.07;;;21.50;99.90;;;;;;5074074;28;20933;-73
2022/10/14 12:55:56;;;;;;;3.80;3.50;;;21.60;99.90;;;;;;5074868;28;20433;-72
2022/10/14 12:58:36;;;;;;;7.50;6.80;;;21.30;99.90;;;;;;5075292;28;20409;-72
2022/10/14 13:01:15;;;;;;;5.17;2.37;;;21.70;99.90;;;;;;5074581;28;20392;-72
2022/10/14 13:03:59;;;;;;;3.93;2.90;;;21.20;99.90;;;;;;5074810;28;20400;-72
2022/10/14 13:06:39;;;;;;;15.67;14.07;;;21.10;99.90;;;;;;5074806;28;20816;-72
2022/10/14 13:09:10;;;;;;;3.80;2.67;;;20.90;99.90;;;;;;5075214;28;20392;-71